עמוד ראשי
METAR-TAF:

METAR-TAF

שדות תעופה :

Air Force Station

נמל החלל קייפ קנוורל, פלורידה, ארצות הברית

קו רוחב: 28-28N, קו אורך: 080-33W, גובה: 3מטר

תצפית מזג אוויר נוכחית

הדו"ח נערך לפני 7 שעות ו 11דקות, בשעה 12:55 UTC
רוח 12קשר מכיוון מזרח
טמפרטורת 29 צלסיוס
לחות 70%
לחץ 1017 hPa
ראות: 16.1קילומטר
מעט עננים בגובה 2200רגל

METAR: KXMR 171255Z AUTO 10012KT 10SM FEW022 29/23 A3003 RMK AO2 RAB45E54 SLP172 P0000 T02910230 $

זמן: 16:06 (20:06 UTC)


TAF: חסר

תצפיות ותחזיות מזג אוויר לגבי יותר מ- 4,000 שדות תעופה ברחבי העולם. דוחות METAR ו- TAF.

התחנות הזמינות מסומנות בנקודות צהובות ואדומות על גבי המפה.

העבר את העכבר לנקודה הצבעונית על מנת לראות את שם התחנה.

לאחר מכן, לחץ כדי לראות את תוכן ואת תחזיות מזג האוויר.

כדי לשנות את המפה: לחץ על הכפתורים הירוקים עם הפלוס השחור כדי להתקרב; על הכפתור הירוק עם המקף כדי להתרחק; או בחיצים הירוקים למפות סמוכות.


METAR-TAF: